sensor_id;sensor_type;location;lat;lon;timestamp;P1;durP1;ratioP1;P2;durP2;ratioP2
6452;SDS011;3259;51.080;13.712;2023-02-11T00:01:05;7.75;;;5.63;;
6452;SDS011;3259;51.080;13.712;2023-02-11T00:03:56;8.93;;;6.47;;
6452;SDS011;3259;51.080;13.712;2023-02-11T00:06:45;9.32;;;6.43;;
6452;SDS011;3259;51.080;13.712;2023-02-11T00:09:34;8.93;;;6.50;;
6452;SDS011;3259;51.080;13.712;2023-02-11T00:12:22;10.20;;;5.55;;
6452;SDS011;3259;51.080;13.712;2023-02-11T00:15:11;9.15;;;6.60;;
6452;SDS011;3259;51.080;13.712;2023-02-11T00:18:00;7.38;;;5.90;;
6452;SDS011;3259;51.080;13.712;2023-02-11T00:20:50;6.95;;;5.43;;
6452;SDS011;3259;51.080;13.712;2023-02-11T00:23:38;7.95;;;6.05;;
6452;SDS011;3259;51.080;13.712;2023-02-11T00:26:28;7.03;;;6.32;;
6452;SDS011;3259;51.080;13.712;2023-02-11T00:29:17;6.95;;;5.13;;
6452;SDS011;3259;51.080;13.712;2023-02-11T00:32:06;6.15;;;5.55;;
6452;SDS011;3259;51.080;13.712;2023-02-11T00:34:55;6.53;;;5.43;;
6452;SDS011;3259;51.080;13.712;2023-02-11T00:37:45;8.15;;;5.47;;
6452;SDS011;3259;51.080;13.712;2023-02-11T00:40:33;7.18;;;5.68;;
6452;SDS011;3259;51.080;13.712;2023-02-11T00:43:22;7.50;;;5.22;;
6452;SDS011;3259;51.080;13.712;2023-02-11T00:46:11;5.32;;;4.78;;
6452;SDS011;3259;51.080;13.712;2023-02-11T00:49:00;8.32;;;5.82;;
6452;SDS011;3259;51.080;13.712;2023-02-11T00:51:49;5.75;;;4.90;;
6452;SDS011;3259;51.080;13.712;2023-02-11T00:54:39;5.78;;;5.15;;
6452;SDS011;3259;51.080;13.712;2023-02-11T00:57:28;7.78;;;5.70;;
6452;SDS011;3259;51.080;13.712;2023-02-11T01:00:16;6.32;;;5.15;;
6452;SDS011;3259;51.080;13.712;2023-02-11T01:03:05;6.10;;;5.38;;
6452;SDS011;3259;51.080;13.712;2023-02-11T01:05:54;6.70;;;5.22;;
6452;SDS011;3259;51.080;13.712;2023-02-11T01:08:43;6.35;;;4.70;;
6452;SDS011;3259;51.080;13.712;2023-02-11T01:11:33;6.40;;;5.15;;
6452;SDS011;3259;51.080;13.712;2023-02-11T01:14:22;5.97;;;4.82;;
6452;SDS011;3259;51.080;13.712;2023-02-11T01:17:11;5.95;;;5.03;;
6452;SDS011;3259;51.080;13.712;2023-02-11T01:20:00;5.68;;;5.05;;
6452;SDS011;3259;51.080;13.712;2023-02-11T01:22:50;7.35;;;5.20;;
6452;SDS011;3259;51.080;13.712;2023-02-11T01:25:39;5.53;;;5.03;;
6452;SDS011;3259;51.080;13.712;2023-02-11T01:28:29;7.72;;;5.10;;
6452;SDS011;3259;51.080;13.712;2023-02-11T01:31:18;6.60;;;5.85;;
6452;SDS011;3259;51.080;13.712;2023-02-11T01:34:06;5.72;;;5.10;;
6452;SDS011;3259;51.080;13.712;2023-02-11T01:36:56;7.20;;;5.45;;
6452;SDS011;3259;51.080;13.712;2023-02-11T01:39:45;8.00;;;5.30;;
6452;SDS011;3259;51.080;13.712;2023-02-11T01:42:34;6.38;;;5.38;;
6452;SDS011;3259;51.080;13.712;2023-02-11T01:45:47;6.55;;;5.05;;
6452;SDS011;3259;51.080;13.712;2023-02-11T01:48:43;9.27;;;5.70;;
6452;SDS011;3259;51.080;13.712;2023-02-11T01:51:35;7.85;;;5.60;;
6452;SDS011;3259;51.080;13.712;2023-02-11T01:54:27;8.60;;;5.43;;
6452;SDS011;3259;51.080;13.712;2023-02-11T01:57:35;5.47;;;4.95;;
6452;SDS011;3259;51.080;13.712;2023-02-11T02:00:26;5.60;;;5.03;;
6452;SDS011;3259;51.080;13.712;2023-02-11T02:03:19;6.95;;;4.78;;
6452;SDS011;3259;51.080;13.712;2023-02-11T02:06:11;6.80;;;4.82;;
6452;SDS011;3259;51.080;13.712;2023-02-11T02:09:04;5.72;;;4.78;;
6452;SDS011;3259;51.080;13.712;2023-02-11T02:11:55;6.93;;;4.80;;
6452;SDS011;3259;51.080;13.712;2023-02-11T02:14:44;4.82;;;4.43;;
6452;SDS011;3259;51.080;13.712;2023-02-11T02:17:34;6.53;;;4.50;;
6452;SDS011;3259;51.080;13.712;2023-02-11T02:33:38;5.90;;;4.88;;
6452;SDS011;3259;51.080;13.712;2023-02-11T02:36:33;7.75;;;4.57;;
6452;SDS011;3259;51.080;13.712;2023-02-11T02:39:26;5.07;;;4.57;;
6452;SDS011;3259;51.080;13.712;2023-02-11T02:42:17;6.53;;;4.50;;
6452;SDS011;3259;51.080;13.712;2023-02-11T02:45:06;5.78;;;4.68;;
6452;SDS011;3259;51.080;13.712;2023-02-11T02:47:55;7.88;;;5.07;;
6452;SDS011;3259;51.080;13.712;2023-02-11T02:50:45;5.80;;;4.63;;
6452;SDS011;3259;51.080;13.712;2023-02-11T02:53:37;7.53;;;5.03;;
6452;SDS011;3259;51.080;13.712;2023-02-11T02:56:33;6.43;;;5.35;;
6452;SDS011;3259;51.080;13.712;2023-02-11T02:59:31;5.45;;;4.85;;
6452;SDS011;3259;51.080;13.712;2023-02-11T03:02:28;6.22;;;5.35;;
6452;SDS011;3259;51.080;13.712;2023-02-11T03:05:20;4.72;;;4.32;;
6452;SDS011;3259;51.080;13.712;2023-02-11T03:08:15;5.43;;;4.35;;
6452;SDS011;3259;51.080;13.712;2023-02-11T03:11:05;4.10;;;3.58;;
6452;SDS011;3259;51.080;13.712;2023-02-11T03:13:55;8.40;;;4.63;;
6452;SDS011;3259;51.080;13.712;2023-02-11T03:16:45;3.35;;;3.05;;
6452;SDS011;3259;51.080;13.712;2023-02-11T03:19:35;4.22;;;3.38;;
6452;SDS011;3259;51.080;13.712;2023-02-11T03:22:26;3.70;;;3.00;;
6452;SDS011;3259;51.080;13.712;2023-02-11T03:25:21;3.30;;;2.80;;
6452;SDS011;3259;51.080;13.712;2023-02-11T03:28:15;2.90;;;2.60;;
6452;SDS011;3259;51.080;13.712;2023-02-11T03:31:08;2.75;;;2.55;;
6452;SDS011;3259;51.080;13.712;2023-02-11T03:33:59;2.95;;;2.75;;
6452;SDS011;3259;51.080;13.712;2023-02-11T03:36:52;3.08;;;2.30;;
6452;SDS011;3259;51.080;13.712;2023-02-11T03:39:44;3.45;;;1.90;;
6452;SDS011;3259;51.080;13.712;2023-02-11T03:42:37;2.83;;;2.17;;
6452;SDS011;3259;51.080;13.712;2023-02-11T03:45:28;3.08;;;2.25;;
6452;SDS011;3259;51.080;13.712;2023-02-11T03:48:18;2.20;;;1.58;;
6452;SDS011;3259;51.080;13.712;2023-02-11T03:51:10;1.98;;;1.83;;
6452;SDS011;3259;51.080;13.712;2023-02-11T03:54:01;1.73;;;1.60;;
6452;SDS011;3259;51.080;13.712;2023-02-11T03:56:52;1.27;;;1.20;;
6452;SDS011;3259;51.080;13.712;2023-02-11T03:59:49;1.50;;;1.40;;
6452;SDS011;3259;51.080;13.712;2023-02-11T04:02:39;1.63;;;1.50;;
6452;SDS011;3259;51.080;13.712;2023-02-11T04:05:28;1.92;;;1.40;;
6452;SDS011;3259;51.080;13.712;2023-02-11T04:08:17;1.55;;;1.45;;
6452;SDS011;3259;51.080;13.712;2023-02-11T04:11:06;2.00;;;1.38;;
6452;SDS011;3259;51.080;13.712;2023-02-11T04:13:54;1.17;;;1.08;;
6452;SDS011;3259;51.080;13.712;2023-02-11T04:16:44;1.33;;;1.20;;
6452;SDS011;3259;51.080;13.712;2023-02-11T04:19:33;1.50;;;1.25;;
6452;SDS011;3259;51.080;13.712;2023-02-11T04:22:22;2.17;;;0.80;;
6452;SDS011;3259;51.080;13.712;2023-02-11T04:25:10;1.55;;;1.20;;
6452;SDS011;3259;51.080;13.712;2023-02-11T04:27:59;1.20;;;1.08;;
6452;SDS011;3259;51.080;13.712;2023-02-11T04:30:48;1.02;;;0.93;;
6452;SDS011;3259;51.080;13.712;2023-02-11T04:33:38;1.23;;;1.13;;
6452;SDS011;3259;51.080;13.712;2023-02-11T04:36:27;0.75;;;0.75;;
6452;SDS011;3259;51.080;13.712;2023-02-11T04:39:15;0.70;;;0.70;;
6452;SDS011;3259;51.080;13.712;2023-02-11T04:42:04;1.23;;;1.15;;
6452;SDS011;3259;51.080;13.712;2023-02-11T04:44:53;3.30;;;1.02;;
6452;SDS011;3259;51.080;13.712;2023-02-11T04:47:41;1.23;;;0.90;;
6452;SDS011;3259;51.080;13.712;2023-02-11T04:50:32;0.95;;;0.75;;
6452;SDS011;3259;51.080;13.712;2023-02-11T04:53:20;1.20;;;1.00;;
6452;SDS011;3259;51.080;13.712;2023-02-11T04:56:09;0.65;;;0.65;;
6452;SDS011;3259;51.080;13.712;2023-02-11T04:58:58;0.77;;;0.77;;
6452;SDS011;3259;51.080;13.712;2023-02-11T05:01:46;1.05;;;0.85;;
6452;SDS011;3259;51.080;13.712;2023-02-11T05:04:36;2.40;;;0.90;;
6452;SDS011;3259;51.080;13.712;2023-02-11T05:07:26;1.38;;;0.80;;
6452;SDS011;3259;51.080;13.712;2023-02-11T05:10:14;1.33;;;0.80;;
6452;SDS011;3259;51.080;13.712;2023-02-11T05:13:03;0.80;;;0.80;;
6452;SDS011;3259;51.080;13.712;2023-02-11T05:15:52;1.15;;;0.55;;
6452;SDS011;3259;51.080;13.712;2023-02-11T05:18:42;0.55;;;0.40;;
6452;SDS011;3259;51.080;13.712;2023-02-11T05:21:31;0.60;;;0.60;;
6452;SDS011;3259;51.080;13.712;2023-02-11T05:24:21;1.88;;;1.10;;
6452;SDS011;3259;51.080;13.712;2023-02-11T05:27:10;0.57;;;0.52;;
6452;SDS011;3259;51.080;13.712;2023-02-11T05:29:59;1.27;;;0.95;;
6452;SDS011;3259;51.080;13.712;2023-02-11T05:32:48;1.08;;;0.70;;
6452;SDS011;3259;51.080;13.712;2023-02-11T05:35:37;1.63;;;0.95;;
6452;SDS011;3259;51.080;13.712;2023-02-11T05:38:26;1.55;;;0.77;;
6452;SDS011;3259;51.080;13.712;2023-02-11T05:41:16;0.52;;;0.52;;
6452;SDS011;3259;51.080;13.712;2023-02-11T05:44:05;0.50;;;0.50;;
6452;SDS011;3259;51.080;13.712;2023-02-11T05:46:53;0.60;;;0.50;;
6452;SDS011;3259;51.080;13.712;2023-02-11T05:49:42;2.75;;;0.88;;
6452;SDS011;3259;51.080;13.712;2023-02-11T05:52:31;0.65;;;0.65;;
6452;SDS011;3259;51.080;13.712;2023-02-11T05:55:20;1.50;;;0.77;;
6452;SDS011;3259;51.080;13.712;2023-02-11T05:58:10;0.70;;;0.70;;
6452;SDS011;3259;51.080;13.712;2023-02-11T06:00:59;1.00;;;0.57;;
6452;SDS011;3259;51.080;13.712;2023-02-11T06:03:47;0.82;;;0.40;;
6452;SDS011;3259;51.080;13.712;2023-02-11T06:06:37;0.73;;;0.47;;
6452;SDS011;3259;51.080;13.712;2023-02-11T06:09:25;4.32;;;0.68;;
6452;SDS011;3259;51.080;13.712;2023-02-11T06:12:14;4.22;;;0.50;;
6452;SDS011;3259;51.080;13.712;2023-02-11T06:15:04;0.80;;;0.80;;
6452;SDS011;3259;51.080;13.712;2023-02-11T06:17:54;0.50;;;0.50;;
6452;SDS011;3259;51.080;13.712;2023-02-11T06:20:42;1.98;;;0.45;;
6452;SDS011;3259;51.080;13.712;2023-02-11T06:23:31;2.63;;;0.63;;
6452;SDS011;3259;51.080;13.712;2023-02-11T06:26:20;2.20;;;0.65;;
6452;SDS011;3259;51.080;13.712;2023-02-11T06:29:10;0.52;;;0.52;;
6452;SDS011;3259;51.080;13.712;2023-02-11T06:32:00;0.52;;;0.47;;
6452;SDS011;3259;51.080;13.712;2023-02-11T06:34:50;0.38;;;0.38;;
6452;SDS011;3259;51.080;13.712;2023-02-11T06:37:38;5.18;;;0.80;;
6452;SDS011;3259;51.080;13.712;2023-02-11T06:40:27;1.02;;;0.47;;
6452;SDS011;3259;51.080;13.712;2023-02-11T06:43:16;0.68;;;0.40;;
6452;SDS011;3259;51.080;13.712;2023-02-11T06:46:04;1.83;;;0.32;;
6452;SDS011;3259;51.080;13.712;2023-02-11T06:48:55;0.30;;;0.30;;
6452;SDS011;3259;51.080;13.712;2023-02-11T06:51:43;0.43;;;0.43;;
6452;SDS011;3259;51.080;13.712;2023-02-11T06:54:32;13.95;;;0.73;;
6452;SDS011;3259;51.080;13.712;2023-02-11T06:57:21;0.77;;;0.77;;
6452;SDS011;3259;51.080;13.712;2023-02-11T07:00:10;1.77;;;0.60;;
6452;SDS011;3259;51.080;13.712;2023-02-11T07:02:59;1.35;;;0.50;;
6452;SDS011;3259;51.080;13.712;2023-02-11T07:05:49;0.70;;;0.38;;
6452;SDS011;3259;51.080;13.712;2023-02-11T07:08:38;2.00;;;0.57;;
6452;SDS011;3259;51.080;13.712;2023-02-11T07:11:28;1.55;;;0.60;;
6452;SDS011;3259;51.080;13.712;2023-02-11T07:14:18;0.50;;;0.50;;
6452;SDS011;3259;51.080;13.712;2023-02-11T07:17:06;0.60;;;0.50;;
6452;SDS011;3259;51.080;13.712;2023-02-11T07:19:55;2.90;;;0.50;;
6452;SDS011;3259;51.080;13.712;2023-02-11T07:22:45;3.40;;;0.47;;
6452;SDS011;3259;51.080;13.712;2023-02-11T07:25:34;0.65;;;0.40;;
6452;SDS011;3259;51.080;13.712;2023-02-11T07:28:23;0.47;;;0.30;;
6452;SDS011;3259;51.080;13.712;2023-02-11T07:31:12;1.80;;;0.60;;
6452;SDS011;3259;51.080;13.712;2023-02-11T07:34:02;0.20;;;0.20;;
6452;SDS011;3259;51.080;13.712;2023-02-11T07:36:50;3.45;;;0.35;;
6452;SDS011;3259;51.080;13.712;2023-02-11T07:39:40;0.63;;;0.43;;
6452;SDS011;3259;51.080;13.712;2023-02-11T07:42:29;0.65;;;0.28;;
6452;SDS011;3259;51.080;13.712;2023-02-11T07:45:18;2.30;;;0.50;;
6452;SDS011;3259;51.080;13.712;2023-02-11T07:48:06;0.45;;;0.30;;
6452;SDS011;3259;51.080;13.712;2023-02-11T07:50:56;1.00;;;0.52;;
6452;SDS011;3259;51.080;13.712;2023-02-11T07:53:52;4.55;;;0.40;;
6452;SDS011;3259;51.080;13.712;2023-02-11T07:56:43;0.93;;;0.40;;
6452;SDS011;3259;51.080;13.712;2023-02-11T07:59:32;3.35;;;0.70;;
6452;SDS011;3259;51.080;13.712;2023-02-11T08:02:21;2.10;;;0.32;;
6452;SDS011;3259;51.080;13.712;2023-02-11T08:05:09;0.13;;;0.10;;
6452;SDS011;3259;51.080;13.712;2023-02-11T08:07:58;2.55;;;0.50;;
6452;SDS011;3259;51.080;13.712;2023-02-11T08:10:47;0.50;;;0.20;;
6452;SDS011;3259;51.080;13.712;2023-02-11T08:13:37;2.63;;;0.20;;
6452;SDS011;3259;51.080;13.712;2023-02-11T08:16:26;1.58;;;0.43;;
6452;SDS011;3259;51.080;13.712;2023-02-11T08:19:16;0.30;;;0.30;;
6452;SDS011;3259;51.080;13.712;2023-02-11T08:22:05;0.30;;;0.30;;
6452;SDS011;3259;51.080;13.712;2023-02-11T08:24:54;3.70;;;0.40;;
6452;SDS011;3259;51.080;13.712;2023-02-11T08:27:44;1.55;;;0.20;;
6452;SDS011;3259;51.080;13.712;2023-02-11T08:30:34;1.52;;;0.30;;
6452;SDS011;3259;51.080;13.712;2023-02-11T08:33:22;0.30;;;0.30;;
6452;SDS011;3259;51.080;13.712;2023-02-11T08:36:12;0.35;;;0.25;;
6452;SDS011;3259;51.080;13.712;2023-02-11T08:39:03;1.85;;;0.40;;
6452;SDS011;3259;51.080;13.712;2023-02-11T08:42:08;0.40;;;0.30;;
6452;SDS011;3259;51.080;13.712;2023-02-11T08:44:56;1.40;;;0.40;;
6452;SDS011;3259;51.080;13.712;2023-02-11T08:47:46;3.78;;;0.28;;
6452;SDS011;3259;51.080;13.712;2023-02-11T08:50:37;1.02;;;0.20;;
6452;SDS011;3259;51.080;13.712;2023-02-11T08:53:26;0.30;;;0.20;;
6452;SDS011;3259;51.080;13.712;2023-02-11T08:56:15;1.00;;;0.30;;
6452;SDS011;3259;51.080;13.712;2023-02-11T08:59:04;14.32;;;1.17;;
6452;SDS011;3259;51.080;13.712;2023-02-11T09:01:54;1.55;;;0.77;;
6452;SDS011;3259;51.080;13.712;2023-02-11T09:04:44;2.53;;;0.45;;
6452;SDS011;3259;51.080;13.712;2023-02-11T09:07:33;0.90;;;0.22;;
6452;SDS011;3259;51.080;13.712;2023-02-11T09:10:22;4.88;;;0.30;;
6452;SDS011;3259;51.080;13.712;2023-02-11T09:13:10;0.82;;;0.30;;
6452;SDS011;3259;51.080;13.712;2023-02-11T09:15:59;4.13;;;0.40;;
6452;SDS011;3259;51.080;13.712;2023-02-11T09:18:50;3.95;;;2.15;;
6452;SDS011;3259;51.080;13.712;2023-02-11T09:21:40;2.33;;;1.20;;
6452;SDS011;3259;51.080;13.712;2023-02-11T09:24:28;3.28;;;1.05;;
6452;SDS011;3259;51.080;13.712;2023-02-11T09:27:17;3.20;;;1.33;;
6452;SDS011;3259;51.080;13.712;2023-02-11T09:30:06;4.47;;;1.08;;
6452;SDS011;3259;51.080;13.712;2023-02-11T09:32:55;1.70;;;1.20;;
6452;SDS011;3259;51.080;13.712;2023-02-11T09:35:44;4.57;;;1.73;;
6452;SDS011;3259;51.080;13.712;2023-02-11T09:38:34;2.45;;;1.52;;
6452;SDS011;3259;51.080;13.712;2023-02-11T09:41:32;1.88;;;1.10;;
6452;SDS011;3259;51.080;13.712;2023-02-11T09:44:25;2.60;;;1.20;;
6452;SDS011;3259;51.080;13.712;2023-02-11T09:47:20;3.75;;;1.38;;
6452;SDS011;3259;51.080;13.712;2023-02-11T09:50:13;2.47;;;1.05;;
6452;SDS011;3259;51.080;13.712;2023-02-11T09:53:04;1.95;;;1.13;;
6452;SDS011;3259;51.080;13.712;2023-02-11T09:55:59;1.05;;;0.90;;
6452;SDS011;3259;51.080;13.712;2023-02-11T09:58:49;1.55;;;0.90;;
6452;SDS011;3259;51.080;13.712;2023-02-11T10:01:38;1.58;;;1.23;;
6452;SDS011;3259;51.080;13.712;2023-02-11T10:04:34;3.22;;;1.05;;
6452;SDS011;3259;51.080;13.712;2023-02-11T10:07:30;1.90;;;1.20;;
6452;SDS011;3259;51.080;13.712;2023-02-11T10:10:28;3.00;;;1.40;;
6452;SDS011;3259;51.080;13.712;2023-02-11T10:13:37;1.20;;;0.85;;
6452;SDS011;3259;51.080;13.712;2023-02-11T10:16:39;1.65;;;0.90;;
6452;SDS011;3259;51.080;13.712;2023-02-11T10:19:39;7.72;;;3.10;;
6452;SDS011;3259;51.080;13.712;2023-02-11T10:22:34;4.85;;;3.38;;
6452;SDS011;3259;51.080;13.712;2023-02-11T10:25:25;5.28;;;3.75;;
6452;SDS011;3259;51.080;13.712;2023-02-11T10:28:16;7.22;;;4.22;;
6452;SDS011;3259;51.080;13.712;2023-02-11T10:31:08;7.43;;;4.53;;
6452;SDS011;3259;51.080;13.712;2023-02-11T10:34:05;4.32;;;3.85;;
6452;SDS011;3259;51.080;13.712;2023-02-11T10:36:54;5.28;;;4.30;;
6452;SDS011;3259;51.080;13.712;2023-02-11T10:39:43;7.82;;;4.55;;
6452;SDS011;3259;51.080;13.712;2023-02-11T10:42:32;3.20;;;2.83;;
6452;SDS011;3259;51.080;13.712;2023-02-11T10:45:24;5.18;;;2.65;;
6452;SDS011;3259;51.080;13.712;2023-02-11T10:51:29;6.53;;;4.90;;
6452;SDS011;3259;51.080;13.712;2023-02-11T10:54:20;5.28;;;4.18;;
6452;SDS011;3259;51.080;13.712;2023-02-11T10:57:12;11.27;;;4.10;;
6452;SDS011;3259;51.080;13.712;2023-02-11T11:00:14;7.95;;;4.43;;
6452;SDS011;3259;51.080;13.712;2023-02-11T11:03:14;9.20;;;5.05;;
6452;SDS011;3259;51.080;13.712;2023-02-11T11:06:07;7.55;;;5.03;;
6452;SDS011;3259;51.080;13.712;2023-02-11T11:08:56;7.95;;;4.68;;
6452;SDS011;3259;51.080;13.712;2023-02-11T11:11:49;6.88;;;4.97;;
6452;SDS011;3259;51.080;13.712;2023-02-11T11:14:39;7.45;;;5.28;;
6452;SDS011;3259;51.080;13.712;2023-02-11T11:17:28;8.23;;;5.13;;
6452;SDS011;3259;51.080;13.712;2023-02-11T11:20:24;6.60;;;4.88;;
6452;SDS011;3259;51.080;13.712;2023-02-11T11:23:16;6.80;;;5.30;;
6452;SDS011;3259;51.080;13.712;2023-02-11T11:26:06;4.93;;;4.35;;
6452;SDS011;3259;51.080;13.712;2023-02-11T11:28:58;7.13;;;5.35;;
6452;SDS011;3259;51.080;13.712;2023-02-11T11:31:50;6.72;;;4.93;;
6452;SDS011;3259;51.080;13.712;2023-02-11T11:34:40;6.93;;;4.82;;
6452;SDS011;3259;51.080;13.712;2023-02-11T11:37:31;7.47;;;5.32;;
6452;SDS011;3259;51.080;13.712;2023-02-11T11:40:22;6.97;;;5.47;;
6452;SDS011;3259;51.080;13.712;2023-02-11T11:43:17;6.68;;;5.72;;
6452;SDS011;3259;51.080;13.712;2023-02-11T11:46:08;6.22;;;4.70;;
6452;SDS011;3259;51.080;13.712;2023-02-11T11:48:59;8.07;;;5.15;;
6452;SDS011;3259;51.080;13.712;2023-02-11T11:51:55;7.88;;;5.00;;
6452;SDS011;3259;51.080;13.712;2023-02-11T11:54:47;8.10;;;5.50;;
6452;SDS011;3259;51.080;13.712;2023-02-11T11:57:40;6.07;;;5.10;;
6452;SDS011;3259;51.080;13.712;2023-02-11T12:00:31;6.25;;;5.03;;
6452;SDS011;3259;51.080;13.712;2023-02-11T12:06:38;5.82;;;5.25;;
6452;SDS011;3259;51.080;13.712;2023-02-11T12:09:31;7.60;;;5.18;;
6452;SDS011;3259;51.080;13.712;2023-02-11T12:12:25;5.82;;;4.82;;
6452;SDS011;3259;51.080;13.712;2023-02-11T12:15:29;5.45;;;4.38;;
6452;SDS011;3259;51.080;13.712;2023-02-11T12:18:27;6.45;;;5.55;;
6452;SDS011;3259;51.080;13.712;2023-02-11T12:21:27;5.57;;;5.07;;
6452;SDS011;3259;51.080;13.712;2023-02-11T12:24:28;6.07;;;5.47;;
6452;SDS011;3259;51.080;13.712;2023-02-11T12:27:28;5.75;;;4.85;;
6452;SDS011;3259;51.080;13.712;2023-02-11T12:30:38;6.63;;;5.60;;
6452;SDS011;3259;51.080;13.712;2023-02-11T12:33:46;8.18;;;5.97;;
6452;SDS011;3259;51.080;13.712;2023-02-11T12:36:53;7.18;;;5.30;;
6452;SDS011;3259;51.080;13.712;2023-02-11T12:39:49;5.40;;;4.90;;
6452;SDS011;3259;51.080;13.712;2023-02-11T12:42:43;7.40;;;5.28;;
6452;SDS011;3259;51.080;13.712;2023-02-11T12:46:17;5.70;;;4.97;;
6452;SDS011;3259;51.080;13.712;2023-02-11T12:49:30;7.00;;;5.80;;
6452;SDS011;3259;51.080;13.712;2023-02-11T12:52:30;5.55;;;4.90;;
6452;SDS011;3259;51.080;13.712;2023-02-11T12:55:23;5.47;;;4.95;;
6452;SDS011;3259;51.080;13.712;2023-02-11T12:58:15;8.13;;;5.20;;
6452;SDS011;3259;51.080;13.712;2023-02-11T13:01:08;6.20;;;4.57;;
6452;SDS011;3259;51.080;13.712;2023-02-11T13:04:03;5.60;;;4.53;;
6452;SDS011;3259;51.080;13.712;2023-02-11T13:06:55;5.30;;;4.50;;
6452;SDS011;3259;51.080;13.712;2023-02-11T13:09:49;5.45;;;4.72;;
6452;SDS011;3259;51.080;13.712;2023-02-11T13:12:38;6.00;;;4.90;;
6452;SDS011;3259;51.080;13.712;2023-02-11T13:15:49;4.72;;;4.18;;
6452;SDS011;3259;51.080;13.712;2023-02-11T13:18:43;9.63;;;5.18;;
6452;SDS011;3259;51.080;13.712;2023-02-11T13:24:55;5.40;;;4.63;;
6452;SDS011;3259;51.080;13.712;2023-02-11T13:27:47;5.15;;;4.13;;
6452;SDS011;3259;51.080;13.712;2023-02-11T13:30:44;5.53;;;5.03;;
6452;SDS011;3259;51.080;13.712;2023-02-11T13:33:38;5.75;;;4.60;;
6452;SDS011;3259;51.080;13.712;2023-02-11T13:36:29;5.20;;;4.70;;
6452;SDS011;3259;51.080;13.712;2023-02-11T13:39:21;5.70;;;5.07;;
6452;SDS011;3259;51.080;13.712;2023-02-11T13:42:10;5.25;;;4.40;;
6452;SDS011;3259;51.080;13.712;2023-02-11T13:45:07;5.43;;;4.45;;
6452;SDS011;3259;51.080;13.712;2023-02-11T13:48:04;4.95;;;4.45;;
6452;SDS011;3259;51.080;13.712;2023-02-11T13:50:55;4.95;;;4.40;;
6452;SDS011;3259;51.080;13.712;2023-02-11T13:53:46;4.40;;;3.83;;
6452;SDS011;3259;51.080;13.712;2023-02-11T13:56:39;4.75;;;4.35;;
6452;SDS011;3259;51.080;13.712;2023-02-11T13:59:45;4.22;;;3.75;;
6452;SDS011;3259;51.080;13.712;2023-02-11T14:02:35;3.65;;;3.33;;
6452;SDS011;3259;51.080;13.712;2023-02-11T14:09:33;7.28;;;4.10;;
6452;SDS011;3259;51.080;13.712;2023-02-11T14:12:29;7.72;;;4.10;;
6452;SDS011;3259;51.080;13.712;2023-02-11T14:15:26;6.60;;;4.80;;
6452;SDS011;3259;51.080;13.712;2023-02-11T14:21:30;3.97;;;3.47;;
6452;SDS011;3259;51.080;13.712;2023-02-11T14:24:44;4.45;;;3.30;;
6452;SDS011;3259;51.080;13.712;2023-02-11T14:27:41;3.65;;;2.60;;
6452;SDS011;3259;51.080;13.712;2023-02-11T14:30:42;5.18;;;2.90;;
6452;SDS011;3259;51.080;13.712;2023-02-11T14:33:40;6.68;;;2.92;;
6452;SDS011;3259;51.080;13.712;2023-02-11T14:36:51;7.00;;;3.22;;
6452;SDS011;3259;51.080;13.712;2023-02-11T14:39:48;2.75;;;2.55;;
6452;SDS011;3259;51.080;13.712;2023-02-11T14:42:45;2.35;;;2.15;;
6452;SDS011;3259;51.080;13.712;2023-02-11T14:45:34;2.45;;;2.08;;
6452;SDS011;3259;51.080;13.712;2023-02-11T14:48:26;5.15;;;2.10;;
6452;SDS011;3259;51.080;13.712;2023-02-11T14:51:17;3.78;;;2.08;;
6452;SDS011;3259;51.080;13.712;2023-02-11T14:54:10;4.88;;;2.28;;
6452;SDS011;3259;51.080;13.712;2023-02-11T14:57:06;5.20;;;2.05;;
6452;SDS011;3259;51.080;13.712;2023-02-11T14:59:58;2.47;;;1.88;;
6452;SDS011;3259;51.080;13.712;2023-02-11T15:02:48;4.75;;;1.83;;
6452;SDS011;3259;51.080;13.712;2023-02-11T15:05:37;9.90;;;2.38;;
6452;SDS011;3259;51.080;13.712;2023-02-11T15:08:26;7.47;;;1.75;;
6452;SDS011;3259;51.080;13.712;2023-02-11T15:11:17;2.30;;;1.27;;
6452;SDS011;3259;51.080;13.712;2023-02-11T15:14:08;4.78;;;2.70;;
6452;SDS011;3259;51.080;13.712;2023-02-11T15:17:05;1.52;;;1.42;;
6452;SDS011;3259;51.080;13.712;2023-02-11T15:19:56;1.50;;;1.40;;
6452;SDS011;3259;51.080;13.712;2023-02-11T15:22:46;3.17;;;1.67;;
6452;SDS011;3259;51.080;13.712;2023-02-11T15:25:41;6.13;;;1.63;;
6452;SDS011;3259;51.080;13.712;2023-02-11T15:28:33;3.35;;;1.48;;
6452;SDS011;3259;51.080;13.712;2023-02-11T15:31:22;3.85;;;1.55;;
6452;SDS011;3259;51.080;13.712;2023-02-11T15:34:15;1.70;;;1.60;;
6452;SDS011;3259;51.080;13.712;2023-02-11T15:37:21;1.85;;;1.55;;
6452;SDS011;3259;51.080;13.712;2023-02-11T15:40:14;4.18;;;1.25;;
6452;SDS011;3259;51.080;13.712;2023-02-11T15:43:05;2.08;;;1.27;;
6452;SDS011;3259;51.080;13.712;2023-02-11T15:45:56;3.10;;;1.40;;
6452;SDS011;3259;51.080;13.712;2023-02-11T15:48:47;1.13;;;1.02;;
6452;SDS011;3259;51.080;13.712;2023-02-11T15:51:39;2.47;;;1.15;;
6452;SDS011;3259;51.080;13.712;2023-02-11T15:54:32;3.08;;;1.17;;
6452;SDS011;3259;51.080;13.712;2023-02-11T15:57:21;1.75;;;1.48;;
6452;SDS011;3259;51.080;13.712;2023-02-11T16:00:13;1.63;;;1.42;;
6452;SDS011;3259;51.080;13.712;2023-02-11T16:03:04;4.90;;;1.48;;
6452;SDS011;3259;51.080;13.712;2023-02-11T16:05:53;2.17;;;1.20;;
6452;SDS011;3259;51.080;13.712;2023-02-11T16:08:44;1.80;;;1.25;;
6452;SDS011;3259;51.080;13.712;2023-02-11T16:11:52;1.40;;;0.82;;
6452;SDS011;3259;51.080;13.712;2023-02-11T16:14:43;2.53;;;1.27;;
6452;SDS011;3259;51.080;13.712;2023-02-11T16:17:32;1.88;;;1.02;;
6452;SDS011;3259;51.080;13.712;2023-02-11T16:20:21;2.28;;;1.23;;
6452;SDS011;3259;51.080;13.712;2023-02-11T16:23:13;1.67;;;1.08;;
6452;SDS011;3259;51.080;13.712;2023-02-11T16:26:19;3.25;;;1.45;;
6452;SDS011;3259;51.080;13.712;2023-02-11T16:29:10;2.95;;;1.90;;
6452;SDS011;3259;51.080;13.712;2023-02-11T16:32:04;17.77;;;2.58;;
6452;SDS011;3259;51.080;13.712;2023-02-11T16:34:57;2.17;;;1.77;;
6452;SDS011;3259;51.080;13.712;2023-02-11T16:37:47;12.90;;;2.03;;
6452;SDS011;3259;51.080;13.712;2023-02-11T16:40:37;4.95;;;1.67;;
6452;SDS011;3259;51.080;13.712;2023-02-11T16:43:27;6.82;;;2.20;;
6452;SDS011;3259;51.080;13.712;2023-02-11T16:46:18;8.93;;;1.63;;
6452;SDS011;3259;51.080;13.712;2023-02-11T16:49:09;8.40;;;1.67;;
6452;SDS011;3259;51.080;13.712;2023-02-11T16:51:59;9.15;;;1.90;;
6452;SDS011;3259;51.080;13.712;2023-02-11T16:54:48;2.83;;;1.48;;
6452;SDS011;3259;51.080;13.712;2023-02-11T16:57:37;5.35;;;1.52;;
6452;SDS011;3259;51.080;13.712;2023-02-11T17:00:28;1.55;;;1.25;;
6452;SDS011;3259;51.080;13.712;2023-02-11T17:03:20;2.33;;;1.67;;
6452;SDS011;3259;51.080;13.712;2023-02-11T17:06:15;2.10;;;1.85;;
6452;SDS011;3259;51.080;13.712;2023-02-11T17:09:30;3.13;;;1.33;;
6452;SDS011;3259;51.080;13.712;2023-02-11T17:12:48;4.75;;;1.83;;
6452;SDS011;3259;51.080;13.712;2023-02-11T17:15:41;2.42;;;1.50;;
6452;SDS011;3259;51.080;13.712;2023-02-11T17:18:30;2.88;;;1.75;;
6452;SDS011;3259;51.080;13.712;2023-02-11T17:21:22;3.50;;;2.15;;
6452;SDS011;3259;51.080;13.712;2023-02-11T17:24:16;3.88;;;1.50;;
6452;SDS011;3259;51.080;13.712;2023-02-11T17:27:08;2.50;;;1.35;;
6452;SDS011;3259;51.080;13.712;2023-02-11T17:29:57;3.75;;;1.67;;
6452;SDS011;3259;51.080;13.712;2023-02-11T17:32:48;2.72;;;1.80;;
6452;SDS011;3259;51.080;13.712;2023-02-11T17:35:38;2.00;;;1.90;;
6452;SDS011;3259;51.080;13.712;2023-02-11T17:38:27;5.45;;;1.80;;
6452;SDS011;3259;51.080;13.712;2023-02-11T17:41:16;2.70;;;1.55;;
6452;SDS011;3259;51.080;13.712;2023-02-11T17:44:05;2.13;;;1.70;;
6452;SDS011;3259;51.080;13.712;2023-02-11T17:46:55;5.63;;;1.85;;
6452;SDS011;3259;51.080;13.712;2023-02-11T17:49:45;10.48;;;2.30;;
6452;SDS011;3259;51.080;13.712;2023-02-11T17:52:33;29.88;;;6.13;;
6452;SDS011;3259;51.080;13.712;2023-02-11T17:55:23;455.73;;;132.30;;
6452;SDS011;3259;51.080;13.712;2023-02-11T17:58:12;357.17;;;99.47;;
6452;SDS011;3259;51.080;13.712;2023-02-11T18:01:01;322.27;;;90.57;;